createdAt,value
2022-10-30T00:01:31.577Z,12.79
2022-10-30T00:04:43.406Z,12.76
2022-10-30T00:07:55.793Z,12.73
2022-10-30T00:11:15.695Z,12.71
2022-10-30T00:14:27.488Z,12.66
2022-10-30T00:17:39.274Z,12.62
2022-10-30T00:20:51.120Z,12.55
2022-10-30T00:24:03.037Z,12.51
2022-10-30T00:27:14.878Z,12.48
2022-10-30T00:30:26.730Z,12.50
2022-10-30T00:33:41.286Z,12.51
2022-10-30T00:36:52.925Z,12.49
2022-10-30T00:40:04.734Z,12.45
2022-10-30T00:43:39.220Z,12.43
2022-10-30T00:46:51.603Z,12.35
2022-10-30T00:50:09.929Z,12.35
2022-10-30T00:53:25.182Z,12.35
2022-10-30T00:56:37.723Z,12.37
2022-10-30T00:59:50.013Z,12.42
2022-10-30T01:03:03.635Z,12.44
2022-10-30T01:06:20.108Z,12.39
2022-10-30T01:09:32.425Z,12.40
2022-10-30T01:12:45.900Z,12.41
2022-10-30T01:16:08.717Z,12.40
2022-10-30T01:19:29.964Z,12.42
2022-10-30T01:22:53.855Z,12.42
2022-10-30T01:26:14.182Z,12.46
2022-10-30T01:29:42.980Z,12.50
2022-10-30T01:33:07.214Z,12.51
2022-10-30T01:36:24.600Z,12.53
2022-10-30T01:39:41.015Z,12.53
2022-10-30T01:42:56.922Z,12.55
2022-10-30T01:46:34.114Z,12.56
2022-10-30T01:50:21.771Z,12.57
2022-10-30T01:53:44.986Z,12.54
2022-10-30T01:57:06.067Z,12.52
2022-10-30T02:00:21.828Z,12.49
2022-10-30T02:03:34.476Z,12.45
2022-10-30T02:06:47.289Z,12.45
2022-10-30T02:10:00.565Z,12.45
2022-10-30T02:13:13.083Z,12.50
2022-10-30T02:16:27.481Z,12.49
2022-10-30T02:19:39.311Z,12.48
2022-10-30T02:22:56.050Z,12.41
2022-10-30T02:26:05.690Z,12.38
2022-10-30T02:29:21.815Z,12.35
2022-10-30T02:32:35.836Z,12.31
2022-10-30T02:35:48.028Z,12.23
2022-10-30T02:39:00.111Z,12.21
2022-10-30T02:42:12.473Z,12.19
2022-10-30T02:45:24.936Z,12.14
2022-10-30T02:48:37.390Z,12.12
2022-10-30T02:51:49.185Z,12.11
2022-10-30T02:55:00.837Z,12.08
2022-10-30T02:58:13.467Z,12.04
2022-10-30T03:01:26.611Z,12.03
2022-10-30T03:04:40.960Z,12.00
2022-10-30T03:07:52.811Z,11.98
2022-10-30T03:11:10.684Z,11.95
2022-10-30T03:14:22.670Z,11.90
2022-10-30T03:17:34.663Z,11.83
2022-10-30T03:20:46.377Z,11.77
2022-10-30T03:23:59.267Z,11.69
2022-10-30T03:27:12.240Z,11.63
2022-10-30T03:30:24.926Z,11.61
2022-10-30T03:33:38.704Z,11.61
2022-10-30T03:36:50.588Z,11.60
2022-10-30T03:40:02.420Z,11.58
2022-10-30T03:43:15.175Z,11.56
2022-10-30T03:46:27.031Z,11.56
2022-10-30T03:49:40.599Z,11.55
2022-10-30T03:52:54.164Z,11.54
2022-10-30T03:56:08.671Z,11.53
2022-10-30T03:59:22.276Z,11.52
2022-10-30T04:02:42.087Z,11.50
2022-10-30T04:05:54.834Z,11.51
2022-10-30T04:09:06.883Z,11.51
2022-10-30T04:12:20.749Z,11.51
2022-10-30T04:15:34.520Z,11.50
2022-10-30T04:18:46.508Z,11.51
2022-10-30T04:21:58.514Z,11.47
2022-10-30T04:25:11.933Z,11.46
2022-10-30T04:28:25.068Z,11.44
2022-10-30T04:31:36.808Z,11.44
2022-10-30T04:34:49.848Z,11.42
2022-10-30T04:38:03.440Z,11.39
2022-10-30T04:41:16.624Z,11.34
2022-10-30T04:44:33.416Z,11.31
2022-10-30T04:47:45.307Z,11.28
2022-10-30T04:50:57.109Z,11.26
2022-10-30T04:54:10.531Z,11.23
2022-10-30T04:57:22.677Z,11.19
2022-10-30T05:00:36.610Z,11.17
2022-10-30T05:03:53.703Z,11.15
2022-10-30T05:07:04.202Z,11.11
2022-10-30T05:10:19.848Z,11.10
2022-10-30T05:13:32.207Z,11.08
2022-10-30T05:16:44.341Z,11.05
2022-10-30T05:19:56.702Z,11.05
2022-10-30T05:23:08.576Z,11.05
2022-10-30T05:26:21.441Z,11.04
2022-10-30T05:29:33.344Z,10.96
2022-10-30T05:32:45.192Z,11.00
2022-10-30T05:35:57.213Z,11.00
2022-10-30T05:39:09.100Z,10.99
2022-10-30T05:42:22.943Z,10.99
2022-10-30T05:45:34.889Z,10.96
2022-10-30T05:48:47.346Z,10.97
2022-10-30T05:51:59.177Z,10.97
2022-10-30T05:55:14.329Z,10.98
2022-10-30T05:58:40.409Z,11.03
2022-10-30T06:01:52.911Z,11.09
2022-10-30T06:05:04.658Z,11.11
2022-10-30T06:08:17.172Z,11.15
2022-10-30T06:11:30.607Z,11.23
2022-10-30T06:14:44.200Z,11.26
2022-10-30T06:17:56.868Z,11.30
2022-10-30T06:21:11.528Z,11.34
2022-10-30T06:24:25.263Z,11.38
2022-10-30T06:27:41.745Z,11.43
2022-10-30T06:30:53.966Z,11.48
2022-10-30T06:34:06.638Z,11.48
2022-10-30T06:37:20.881Z,11.52
2022-10-30T06:40:33.949Z,11.59
2022-10-30T06:44:07.241Z,11.70
2022-10-30T06:47:21.556Z,11.76
2022-10-30T06:50:33.649Z,12.03
2022-10-30T06:53:45.892Z,12.18
2022-10-30T06:57:11.890Z,12.31
2022-10-30T07:00:29.180Z,12.40
2022-10-30T07:03:49.653Z,12.49
2022-10-30T07:07:01.687Z,12.60
2022-10-30T07:10:15.942Z,12.69
2022-10-30T07:13:31.565Z,12.95
2022-10-30T07:16:51.785Z,13.39
2022-10-30T07:20:03.983Z,13.61
2022-10-30T07:23:16.171Z,13.78
2022-10-30T07:26:29.547Z,13.92
2022-10-30T07:29:43.440Z,13.79
2022-10-30T07:33:07.509Z,13.58
2022-10-30T07:36:24.108Z,13.38
2022-10-30T07:39:38.046Z,13.38
2022-10-30T07:42:51.702Z,13.41
2022-10-30T07:46:11.986Z,13.68
2022-10-30T07:49:39.599Z,14.04
2022-10-30T07:52:54.426Z,14.34
2022-10-30T07:56:08.275Z,14.62
2022-10-30T07:59:50.921Z,14.46
2022-10-30T08:03:21.916Z,14.70
2022-10-30T08:06:38.364Z,14.52
2022-10-30T08:09:50.457Z,15.23
2022-10-30T08:13:03.618Z,15.32
2022-10-30T08:16:18.257Z,15.35
2022-10-30T08:19:30.289Z,15.47
2022-10-30T08:22:52.481Z,16.24
2022-10-30T08:26:06.924Z,17.18
2022-10-30T08:29:20.968Z,17.50
2022-10-30T08:32:33.388Z,17.60
2022-10-30T08:35:59.761Z,17.92
2022-10-30T08:39:11.995Z,17.78
2022-10-30T08:42:29.145Z,17.93
2022-10-30T08:45:42.407Z,18.63
2022-10-30T08:48:56.732Z,19.26
2022-10-30T08:52:10.806Z,19.70
2022-10-30T08:55:24.142Z,20.06
2022-10-30T08:58:36.190Z,20.52
2022-10-30T09:01:50.481Z,20.19
2022-10-30T09:05:03.435Z,19.86
2022-10-30T09:08:35.045Z,19.49
2022-10-30T09:11:58.540Z,18.92
2022-10-30T09:15:13.068Z,18.51
2022-10-30T09:18:27.359Z,18.18
2022-10-30T09:21:41.489Z,18.11
2022-10-30T09:33:08.747Z,18.35
2022-10-30T09:56:46.817Z,19.45
2022-10-30T10:04:47.896Z,19.77
2022-10-30T10:08:04.916Z,19.49
2022-10-30T10:19:07.220Z,19.50
2022-10-30T10:27:17.511Z,19.54
2022-10-30T10:35:24.754Z,20.42
2022-10-30T10:49:25.247Z,20.74
2022-10-30T10:52:44.025Z,20.45
2022-10-30T10:56:01.701Z,20.39
2022-10-30T10:59:20.732Z,20.90
2022-10-30T11:02:47.743Z,21.32
2022-10-30T11:06:04.421Z,21.55
2022-10-30T11:09:23.827Z,21.61
2022-10-30T11:12:40.143Z,22.05
2022-10-30T11:16:01.200Z,22.67
2022-10-30T11:19:15.395Z,22.68
2022-10-30T11:22:33.744Z,22.43
2022-10-30T11:25:45.634Z,22.05
2022-10-30T11:29:00.764Z,21.94
2022-10-30T11:32:16.120Z,21.88
2022-10-30T11:35:28.841Z,21.70
2022-10-30T11:38:40.616Z,21.50
2022-10-30T11:42:02.515Z,21.35
2022-10-30T11:45:21.999Z,21.33
2022-10-30T11:48:38.321Z,21.22
2022-10-30T11:51:52.287Z,21.46
2022-10-30T11:55:09.449Z,21.37
2022-10-30T11:58:46.786Z,21.50
2022-10-30T12:02:27.085Z,21.85
2022-10-30T12:06:02.186Z,22.12
2022-10-30T12:09:21.518Z,22.26
2022-10-30T12:12:41.153Z,22.38
2022-10-30T12:15:58.278Z,22.36
2022-10-30T12:19:30.395Z,22.25
2022-10-30T12:22:42.608Z,21.94
2022-10-30T12:25:58.317Z,21.97
2022-10-30T12:29:17.911Z,21.79
2022-10-30T12:32:38.629Z,21.61
2022-10-30T12:35:55.525Z,21.73
2022-10-30T12:39:13.664Z,21.77
2022-10-30T12:42:26.558Z,21.75
2022-10-30T12:45:44.525Z,21.64
2022-10-30T12:48:59.646Z,21.40
2022-10-30T12:52:17.677Z,21.18
2022-10-30T12:55:35.778Z,21.18
2022-10-30T12:58:54.222Z,21.14
2022-10-30T13:02:15.883Z,21.14
2022-10-30T13:05:39.146Z,21.14
2022-10-30T13:08:59.815Z,21.06
2022-10-30T13:12:16.994Z,21.18
2022-10-30T13:15:34.043Z,21.27
2022-10-30T13:18:45.820Z,21.33
2022-10-30T13:22:04.370Z,21.33
2022-10-30T13:25:23.812Z,21.41
2022-10-30T13:28:42.104Z,21.47
2022-10-30T13:32:06.190Z,21.52
2022-10-30T13:35:30.742Z,21.47
2022-10-30T13:38:50.921Z,21.44
2022-10-30T13:42:19.010Z,21.41
2022-10-30T13:46:04.342Z,21.34
2022-10-30T13:49:30.192Z,21.30
2022-10-30T13:52:47.301Z,21.25
2022-10-30T13:56:01.341Z,21.23
2022-10-30T13:59:50.037Z,21.25
2022-10-30T14:03:43.346Z,21.20
2022-10-30T14:07:00.757Z,21.10
2022-10-30T14:10:18.026Z,21.03
2022-10-30T14:13:36.560Z,21.00
2022-10-30T14:16:51.445Z,20.89
2022-10-30T14:20:33.695Z,20.86
2022-10-30T14:23:45.921Z,20.81
2022-10-30T14:27:02.841Z,20.78
2022-10-30T14:30:25.832Z,20.70
2022-10-30T14:33:51.271Z,20.66
2022-10-30T14:37:03.339Z,20.59
2022-10-30T14:40:49.407Z,20.56
2022-10-30T14:44:44.265Z,20.52
2022-10-30T14:48:02.726Z,20.43
2022-10-30T14:51:22.855Z,20.33
2022-10-30T14:54:41.570Z,20.21
2022-10-30T14:57:57.720Z,20.09
2022-10-30T15:01:41.490Z,20.04
2022-10-30T15:05:15.220Z,19.97
2022-10-30T15:08:56.139Z,19.81
2022-10-30T15:15:39.452Z,19.45
2022-10-30T15:18:55.838Z,19.36
2022-10-30T15:22:07.811Z,19.24
2022-10-30T15:25:26.079Z,19.11
2022-10-30T15:28:40.516Z,18.95
2022-10-30T15:32:03.120Z,18.88
2022-10-30T15:35:24.493Z,18.83
2022-10-30T15:38:36.594Z,18.76
2022-10-30T15:41:53.875Z,18.71
2022-10-30T15:45:05.965Z,18.66
2022-10-30T15:48:26.895Z,18.58
2022-10-30T15:51:41.546Z,18.51
2022-10-30T15:54:58.383Z,18.45
2022-10-30T15:58:13.220Z,18.42
2022-10-30T16:01:38.576Z,18.33
2022-10-30T16:04:51.250Z,18.17
2022-10-30T16:08:06.542Z,18.10
2022-10-30T16:11:21.009Z,18.05
2022-10-30T16:14:36.905Z,18.01
2022-10-30T16:17:53.073Z,17.93
2022-10-30T16:21:07.335Z,17.76
2022-10-30T16:24:21.615Z,17.60
2022-10-30T16:27:33.613Z,17.55
2022-10-30T16:30:46.962Z,17.45
2022-10-30T16:34:00.267Z,17.29
2022-10-30T16:37:17.409Z,17.15
2022-10-30T16:40:30.416Z,17.13
2022-10-30T16:43:44.054Z,17.05
2022-10-30T16:46:58.882Z,17.01
2022-10-30T16:50:15.053Z,16.99
2022-10-30T16:53:30.590Z,16.88
2022-10-30T16:56:45.597Z,16.71
2022-10-30T16:59:58.906Z,16.54
2022-10-30T17:03:15.328Z,16.46
2022-10-30T17:06:44.877Z,16.36
2022-10-30T17:09:59.260Z,16.25
2022-10-30T17:13:37.933Z,16.17
2022-10-30T17:17:00.144Z,16.09
2022-10-30T17:20:31.571Z,16.06
2022-10-30T17:23:49.903Z,15.98
2022-10-30T17:27:05.869Z,15.84
2022-10-30T17:30:48.501Z,15.76
2022-10-30T17:34:23.933Z,15.71
2022-10-30T17:37:36.234Z,15.61
2022-10-30T17:40:48.048Z,15.57
2022-10-30T17:44:02.486Z,15.56
2022-10-30T17:47:23.743Z,15.57
2022-10-30T17:50:35.627Z,15.58
2022-10-30T17:53:48.293Z,15.49
2022-10-30T17:57:01.041Z,15.42
2022-10-30T18:00:17.111Z,15.24
2022-10-30T18:03:29.362Z,15.25
2022-10-30T18:06:41.465Z,15.29
2022-10-30T18:09:53.980Z,15.32
2022-10-30T18:13:06.592Z,15.35
2022-10-30T18:16:20.469Z,15.39
2022-10-30T18:19:32.745Z,15.42
2022-10-30T18:22:44.958Z,15.30
2022-10-30T18:25:57.520Z,15.09
2022-10-30T18:29:09.772Z,14.96
2022-10-30T18:32:22.420Z,14.91
2022-10-30T18:35:39.702Z,14.81
2022-10-30T18:38:52.860Z,14.72
2022-10-30T18:42:05.118Z,14.66
2022-10-30T18:45:30.130Z,14.59
2022-10-30T18:48:42.357Z,14.51
2022-10-30T18:51:56.000Z,14.47
2022-10-30T18:55:09.883Z,14.57
2022-10-30T18:58:21.859Z,14.54
2022-10-30T19:01:35.025Z,14.47
2022-10-30T19:04:47.288Z,14.32
2022-10-30T19:07:59.963Z,14.38
2022-10-30T19:11:13.869Z,14.30
2022-10-30T19:14:26.017Z,14.19
2022-10-30T19:17:38.079Z,14.12
2022-10-30T19:21:04.045Z,14.13
2022-10-30T19:24:07.277Z,14.01
2022-10-30T19:27:21.182Z,13.90
2022-10-30T19:30:33.664Z,13.81
2022-10-30T19:33:45.927Z,13.77
2022-10-30T19:36:58.287Z,13.71
2022-10-30T19:40:37.656Z,13.60
2022-10-30T19:43:49.775Z,13.52
2022-10-30T19:47:01.815Z,13.51
2022-10-30T19:50:29.526Z,13.48
2022-10-30T19:53:41.439Z,13.45
2022-10-30T19:56:53.211Z,13.41
2022-10-30T20:00:05.231Z,13.35
2022-10-30T20:03:19.495Z,13.34
2022-10-30T20:06:31.289Z,13.38
2022-10-30T20:09:43.075Z,13.36
2022-10-30T20:12:56.946Z,13.28
2022-10-30T20:16:10.141Z,13.22
2022-10-30T20:19:33.590Z,13.21
2022-10-30T20:22:45.824Z,13.19
2022-10-30T20:26:02.030Z,13.09
2022-10-30T20:29:14.241Z,12.98
2022-10-30T20:32:26.206Z,12.96
2022-10-30T20:35:38.042Z,12.95
2022-10-30T20:38:50.012Z,12.89
2022-10-30T20:42:02.055Z,12.94
2022-10-30T20:45:21.385Z,12.91
2022-10-30T20:48:33.920Z,12.85
2022-10-30T20:51:45.964Z,12.73
2022-10-30T20:54:57.962Z,12.76
2022-10-30T20:58:10.357Z,12.73
2022-10-30T21:01:22.484Z,12.72
2022-10-30T21:04:34.514Z,12.69
2022-10-30T21:07:46.566Z,12.71
2022-10-30T21:10:58.553Z,12.71
2022-10-30T21:14:10.321Z,12.78
2022-10-30T21:17:22.115Z,12.70
2022-10-30T21:20:34.163Z,12.55
2022-10-30T21:23:46.072Z,12.47
2022-10-30T21:26:58.159Z,12.42
2022-10-30T21:30:12.175Z,12.39
2022-10-30T21:33:24.118Z,12.46
2022-10-30T21:36:35.919Z,12.48
2022-10-30T21:39:47.605Z,12.44
2022-10-30T21:43:03.040Z,12.41
2022-10-30T21:46:15.564Z,12.39
2022-10-30T21:49:30.122Z,12.31
2022-10-30T21:52:41.945Z,12.23
2022-10-30T21:55:53.698Z,12.19
2022-10-30T21:59:06.804Z,12.29
2022-10-30T22:02:21.857Z,12.46
2022-10-30T22:05:35.716Z,12.59
2022-10-30T22:08:50.423Z,12.80
2022-10-30T22:12:02.493Z,12.83
2022-10-30T22:15:16.371Z,12.82
2022-10-30T22:18:29.399Z,12.74
2022-10-30T22:21:41.187Z,12.91
2022-10-30T22:24:53.082Z,13.10
2022-10-30T22:28:04.944Z,13.24
2022-10-30T22:31:19.878Z,13.34
2022-10-30T22:34:31.653Z,13.37
2022-10-30T22:37:43.275Z,13.26
2022-10-30T22:40:54.880Z,13.18
2022-10-30T22:44:10.639Z,13.23
2022-10-30T22:47:22.337Z,13.26
2022-10-30T22:50:33.964Z,13.25
2022-10-30T22:53:46.286Z,13.25
2022-10-30T22:57:00.569Z,13.27
2022-10-30T23:00:19.147Z,13.27
2022-10-30T23:03:30.132Z,13.29
2022-10-30T23:06:42.412Z,13.22
2022-10-30T23:09:54.163Z,13.31
2022-10-30T23:13:05.815Z,13.37
2022-10-30T23:16:22.437Z,13.37
2022-10-30T23:19:35.287Z,13.33
2022-10-30T23:22:47.077Z,13.31
2022-10-30T23:25:58.856Z,13.27
2022-10-30T23:29:11.416Z,13.29
2022-10-30T23:32:23.149Z,13.30
2022-10-30T23:35:34.781Z,13.29
2022-10-30T23:38:46.570Z,13.27
2022-10-30T23:41:58.333Z,13.28
2022-10-30T23:45:11.177Z,13.28
2022-10-30T23:48:23.016Z,13.25
2022-10-30T23:51:34.789Z,13.21
2022-10-30T23:54:46.888Z,13.21
2022-10-30T23:57:59.020Z,13.19
